createdAt,value
2022-11-25T00:00:20.568Z,13.02
2022-11-25T00:02:48.285Z,13.65
2022-11-25T00:05:16.260Z,15.10
2022-11-25T00:07:43.961Z,10.03
2022-11-25T00:10:11.776Z,11.07
2022-11-25T00:12:40.864Z,12.38
2022-11-25T00:15:09.252Z,13.70
2022-11-25T00:17:36.899Z,10.32
2022-11-25T00:20:06.069Z,10.20
2022-11-25T00:22:33.732Z,11.88
2022-11-25T00:25:01.450Z,12.70
2022-11-25T00:27:29.086Z,8.43
2022-11-25T00:29:58.071Z,9.50
2022-11-25T00:32:25.789Z,14.35
2022-11-25T00:34:53.389Z,12.10
2022-11-25T00:37:21.046Z,13.35
2022-11-25T00:39:48.751Z,14.82
2022-11-25T00:42:33.870Z,11.55
2022-11-25T00:45:02.872Z,12.35
2022-11-25T00:47:30.499Z,13.52
2022-11-25T00:49:58.101Z,13.80
2022-11-25T00:52:27.835Z,13.32
2022-11-25T00:54:55.515Z,12.52
2022-11-25T00:57:24.565Z,13.95
2022-11-25T00:59:52.281Z,12.85
2022-11-25T01:02:21.803Z,14.82
2022-11-25T01:04:49.944Z,13.30
2022-11-25T01:07:18.114Z,15.33
2022-11-25T01:09:46.058Z,11.75
2022-11-25T01:12:13.655Z,8.27
2022-11-25T01:14:41.592Z,11.02
2022-11-25T01:17:09.360Z,8.18
2022-11-25T01:19:40.214Z,13.43
2022-11-25T01:22:08.256Z,11.35
2022-11-25T01:24:36.495Z,13.52
2022-11-25T01:27:05.156Z,13.70
2022-11-25T01:29:32.984Z,9.98
2022-11-25T01:32:00.765Z,12.07
2022-11-25T01:34:32.410Z,11.35
2022-11-25T01:37:01.385Z,9.13
2022-11-25T01:39:32.775Z,11.85
2022-11-25T01:42:01.145Z,13.88
2022-11-25T01:44:31.184Z,10.25
2022-11-25T01:47:06.452Z,12.48
2022-11-25T01:49:40.505Z,8.80
2022-11-25T01:52:16.813Z,8.33
2022-11-25T01:54:50.759Z,11.65
2022-11-25T01:57:25.391Z,9.25
2022-11-25T01:59:57.495Z,11.50
2022-11-25T02:02:25.419Z,13.20
2022-11-25T02:04:53.955Z,9.75
2022-11-25T02:07:29.766Z,10.48
2022-11-25T02:09:58.464Z,7.95
2022-11-25T02:12:27.675Z,10.33
2022-11-25T02:14:57.825Z,12.52
2022-11-25T02:17:26.024Z,11.20
2022-11-25T02:20:00.460Z,10.20
2022-11-25T02:22:41.928Z,9.75
2022-11-25T02:25:15.483Z,10.07
2022-11-25T02:27:46.063Z,10.48
2022-11-25T02:30:14.991Z,8.73
2022-11-25T02:32:45.930Z,13.43
2022-11-25T02:35:33.300Z,11.55
2022-11-25T02:38:07.827Z,9.13
2022-11-25T02:40:41.643Z,9.50
2022-11-25T02:43:09.402Z,9.68
2022-11-25T02:45:51.054Z,10.52
2022-11-25T02:48:19.804Z,12.33
2022-11-25T02:50:47.752Z,11.23
2022-11-25T02:53:16.588Z,11.77
2022-11-25T02:55:45.723Z,12.27
2022-11-25T02:58:13.988Z,13.20
2022-11-25T03:00:42.388Z,8.80
2022-11-25T03:03:10.657Z,11.83
2022-11-25T03:05:38.574Z,10.95
2022-11-25T03:08:07.079Z,10.02
2022-11-25T03:10:35.146Z,12.20
2022-11-25T03:13:04.862Z,9.77
2022-11-25T03:15:32.633Z,8.50
2022-11-25T03:18:00.316Z,9.00
2022-11-25T03:20:28.142Z,12.20
2022-11-25T03:22:55.822Z,13.85
2022-11-25T03:25:23.496Z,9.98
2022-11-25T03:27:51.183Z,10.38
2022-11-25T03:30:22.504Z,10.75
2022-11-25T03:32:50.557Z,13.85
2022-11-25T03:35:18.975Z,10.25
2022-11-25T03:37:46.810Z,7.13
2022-11-25T03:40:17.482Z,10.55
2022-11-25T03:42:45.725Z,11.48
2022-11-25T03:45:15.714Z,11.38
2022-11-25T03:47:45.282Z,8.85
2022-11-25T03:50:14.917Z,8.55
2022-11-25T03:52:42.583Z,10.27
2022-11-25T03:55:12.949Z,8.95
2022-11-25T03:57:41.130Z,11.18
2022-11-25T04:00:10.385Z,8.05
2022-11-25T04:02:38.117Z,7.20
2022-11-25T04:05:08.151Z,8.02
2022-11-25T04:07:35.832Z,7.05
2022-11-25T04:10:03.533Z,8.77
2022-11-25T04:12:49.647Z,8.82
2022-11-25T04:15:18.393Z,8.07
2022-11-25T04:17:46.166Z,8.57
2022-11-25T04:20:16.429Z,10.48
2022-11-25T04:22:44.170Z,7.35
2022-11-25T04:25:12.206Z,8.48
2022-11-25T04:27:39.911Z,8.82
2022-11-25T04:30:09.247Z,7.27
2022-11-25T04:32:38.412Z,13.02
2022-11-25T04:35:06.936Z,17.08
2022-11-25T04:37:35.941Z,18.90
2022-11-25T04:40:03.866Z,17.98
2022-11-25T04:42:34.867Z,17.88
2022-11-25T04:45:22.541Z,17.20
2022-11-25T04:47:50.660Z,14.55
2022-11-25T04:50:21.938Z,14.32
2022-11-25T04:52:51.005Z,11.32
2022-11-25T04:55:18.837Z,15.13
2022-11-25T04:57:46.480Z,10.88
2022-11-25T05:00:13.854Z,10.77
2022-11-25T05:02:41.723Z,15.30
2022-11-25T05:05:09.802Z,10.95
2022-11-25T05:07:38.576Z,12.32
2022-11-25T05:10:08.820Z,13.65
2022-11-25T05:12:36.989Z,8.77
2022-11-25T05:15:05.808Z,13.50
2022-11-25T05:17:33.896Z,8.40
2022-11-25T05:20:01.832Z,10.30
2022-11-25T05:22:31.262Z,13.87
2022-11-25T05:24:59.233Z,13.75
2022-11-25T05:27:28.663Z,15.15
2022-11-25T05:29:56.515Z,14.60
2022-11-25T05:32:24.334Z,12.20
2022-11-25T05:34:51.980Z,11.90
2022-11-25T05:37:24.137Z,9.00
2022-11-25T05:39:52.584Z,11.05
2022-11-25T05:42:20.440Z,10.02
2022-11-25T05:44:49.555Z,18.50
2022-11-25T05:47:17.175Z,16.50
2022-11-25T05:49:44.809Z,16.75
2022-11-25T05:52:12.466Z,16.93
2022-11-25T05:54:40.176Z,14.52
2022-11-25T05:57:07.860Z,13.30
2022-11-25T05:59:35.872Z,15.60
2022-11-25T06:02:04.938Z,21.23
2022-11-25T06:04:33.054Z,12.57
2022-11-25T06:07:00.831Z,10.50
2022-11-25T06:09:28.472Z,8.55
2022-11-25T06:11:56.165Z,11.63
2022-11-25T06:14:23.793Z,11.00
2022-11-25T06:16:52.362Z,11.15
2022-11-25T06:19:21.359Z,12.55
2022-11-25T06:21:51.203Z,10.70
2022-11-25T06:24:18.917Z,10.88
2022-11-25T06:26:46.626Z,11.05
2022-11-25T06:29:14.263Z,10.35
2022-11-25T06:31:42.101Z,12.65
2022-11-25T06:34:10.300Z,10.18
2022-11-25T06:36:39.475Z,11.40
2022-11-25T06:39:07.131Z,11.20
2022-11-25T06:41:34.812Z,13.63
2022-11-25T06:44:02.438Z,15.75
2022-11-25T06:46:31.225Z,9.57
2022-11-25T06:49:01.251Z,9.17
2022-11-25T06:51:29.195Z,16.27
2022-11-25T06:53:58.207Z,12.87
2022-11-25T06:56:28.040Z,13.63
2022-11-25T06:58:56.452Z,13.23
2022-11-25T07:01:26.029Z,15.30
2022-11-25T07:03:55.391Z,15.27
2022-11-25T07:06:23.708Z,16.08
2022-11-25T07:08:52.153Z,19.80
2022-11-25T07:11:23.244Z,17.92
2022-11-25T07:13:53.518Z,17.88
2022-11-25T07:16:21.449Z,31.77
2022-11-25T07:18:49.102Z,44.90
2022-11-25T07:21:18.824Z,32.75
2022-11-25T07:23:47.710Z,27.70
2022-11-25T07:26:17.292Z,24.48
2022-11-25T07:28:47.817Z,17.00
2022-11-25T07:31:28.476Z,18.70
2022-11-25T07:34:01.386Z,20.20
2022-11-25T07:36:30.038Z,17.70
2022-11-25T07:38:58.980Z,17.80
2022-11-25T07:41:28.117Z,62.55
2022-11-25T07:43:59.133Z,55.10
2022-11-25T07:46:28.864Z,46.03
2022-11-25T07:48:58.007Z,36.25
2022-11-25T07:51:27.446Z,26.67
2022-11-25T07:53:57.239Z,29.98
2022-11-25T07:56:26.068Z,27.35
2022-11-25T07:58:54.087Z,23.65
2022-11-25T08:01:23.564Z,21.40
2022-11-25T08:03:52.493Z,18.30
2022-11-25T08:06:22.559Z,16.05
2022-11-25T08:08:52.877Z,27.55
2022-11-25T08:11:22.486Z,18.75
2022-11-25T08:13:50.936Z,24.45
2022-11-25T08:16:21.149Z,14.10
2022-11-25T08:18:51.057Z,12.85
2022-11-25T08:21:19.899Z,28.85
2022-11-25T08:23:48.932Z,22.52
2022-11-25T08:26:18.816Z,21.25
2022-11-25T08:28:47.266Z,13.50
2022-11-25T08:31:18.431Z,17.63
2022-11-25T08:33:47.081Z,14.18
2022-11-25T08:36:17.011Z,19.92
2022-11-25T08:38:45.901Z,17.35
2022-11-25T08:41:15.598Z,16.05
2022-11-25T08:43:44.455Z,18.60
2022-11-25T08:46:13.933Z,20.25
2022-11-25T08:48:43.018Z,19.65
2022-11-25T08:51:13.495Z,19.23
2022-11-25T08:53:44.024Z,21.63
2022-11-25T08:56:12.376Z,30.60
2022-11-25T08:58:40.381Z,23.92
2022-11-25T09:01:08.774Z,27.20
2022-11-25T09:03:38.305Z,40.60
2022-11-25T09:06:10.009Z,35.83
2022-11-25T09:08:39.568Z,26.45
2022-11-25T09:11:09.386Z,24.35
2022-11-25T09:13:37.610Z,45.63
2022-11-25T09:16:06.496Z,41.47
2022-11-25T09:18:35.314Z,25.30
2022-11-25T09:21:09.663Z,22.35
2022-11-25T09:23:38.484Z,20.00
2022-11-25T09:26:08.945Z,19.65
2022-11-25T09:28:36.883Z,25.70
2022-11-25T09:31:08.763Z,24.15
2022-11-25T09:33:36.734Z,26.40
2022-11-25T09:36:06.130Z,22.03
2022-11-25T09:38:35.698Z,24.95
2022-11-25T09:41:10.840Z,21.90
2022-11-25T09:44:05.995Z,17.43
2022-11-25T09:46:46.964Z,19.13
2022-11-25T09:49:31.743Z,20.23
2022-11-25T09:52:11.926Z,18.52
2022-11-25T09:54:43.563Z,18.73
2022-11-25T09:57:24.081Z,18.30
2022-11-25T10:00:02.996Z,16.63
2022-11-25T10:02:38.731Z,20.85
2022-11-25T10:05:10.495Z,19.52
2022-11-25T10:07:42.532Z,18.25
2022-11-25T10:10:19.673Z,17.50
2022-11-25T10:12:50.797Z,16.30
2022-11-25T10:15:22.000Z,17.60
2022-11-25T10:17:53.225Z,16.23
2022-11-25T10:20:23.440Z,15.73
2022-11-25T10:22:55.041Z,18.13
2022-11-25T10:25:25.575Z,17.65
2022-11-25T10:28:00.097Z,17.48
2022-11-25T10:30:33.505Z,15.52
2022-11-25T10:33:07.611Z,16.42
2022-11-25T10:35:39.911Z,19.23
2022-11-25T10:38:18.771Z,19.73
2022-11-25T10:40:49.790Z,19.85
2022-11-25T10:43:18.868Z,18.45
2022-11-25T10:45:52.123Z,20.77
2022-11-25T10:48:33.547Z,21.43
2022-11-25T10:51:22.051Z,18.48
2022-11-25T10:54:11.640Z,16.50
2022-11-25T10:56:46.279Z,16.92
2022-11-25T10:59:29.213Z,19.90
2022-11-25T11:02:16.728Z,18.08
2022-11-25T11:04:59.812Z,18.20
2022-11-25T11:07:29.572Z,27.52
2022-11-25T11:10:17.464Z,22.15
2022-11-25T11:12:56.732Z,15.53
2022-11-25T11:15:28.140Z,20.90
2022-11-25T11:17:57.574Z,23.52
2022-11-25T11:20:27.002Z,19.40
2022-11-25T11:22:58.379Z,18.05
2022-11-25T11:25:33.542Z,18.33
2022-11-25T11:28:02.745Z,23.38
2022-11-25T11:30:33.936Z,19.87
2022-11-25T11:33:05.062Z,19.38
2022-11-25T11:35:54.644Z,17.17
2022-11-25T11:38:32.573Z,16.20
2022-11-25T11:41:13.247Z,15.05
2022-11-25T11:44:04.930Z,15.15
2022-11-25T11:46:47.363Z,16.30
2022-11-25T11:49:42.119Z,19.38
2022-11-25T11:52:18.377Z,15.85
2022-11-25T11:54:53.475Z,19.45
2022-11-25T11:57:31.504Z,16.50
2022-11-25T12:00:04.436Z,16.63
2022-11-25T12:02:50.329Z,20.40
2022-11-25T12:05:21.954Z,19.13
2022-11-25T12:07:59.281Z,16.50
2022-11-25T12:10:31.190Z,17.00
2022-11-25T12:13:06.779Z,16.43
2022-11-25T12:15:41.439Z,20.15
2022-11-25T12:18:20.318Z,20.77
2022-11-25T12:20:58.325Z,17.93
2022-11-25T12:23:33.660Z,21.00
2022-11-25T12:26:06.847Z,15.68
2022-11-25T12:28:40.885Z,14.98
2022-11-25T12:31:18.237Z,16.15
2022-11-25T12:33:57.968Z,17.73
2022-11-25T12:36:33.803Z,15.77
2022-11-25T12:39:04.404Z,17.17
2022-11-25T12:41:41.904Z,12.88
2022-11-25T12:44:15.942Z,18.48
2022-11-25T12:46:46.400Z,12.25
2022-11-25T12:49:20.154Z,12.52
2022-11-25T12:52:20.592Z,13.40
2022-11-25T12:55:16.470Z,8.60
2022-11-25T12:58:22.497Z,11.18
2022-11-25T13:01:17.294Z,9.40
2022-11-25T13:04:13.617Z,9.48
2022-11-25T13:07:00.251Z,8.73
2022-11-25T13:09:48.326Z,11.68
2022-11-25T13:12:28.910Z,13.83
2022-11-25T13:15:21.611Z,10.48
2022-11-25T13:17:52.627Z,12.38
2022-11-25T13:20:34.280Z,8.67
2022-11-25T13:23:08.866Z,10.50
2022-11-25T13:25:38.547Z,9.52
2022-11-25T13:28:07.230Z,10.68
2022-11-25T13:30:40.192Z,10.70
2022-11-25T13:33:57.008Z,8.18
2022-11-25T13:36:26.559Z,11.57
2022-11-25T13:39:07.794Z,10.95
2022-11-25T13:41:41.685Z,10.52
2022-11-25T13:44:23.454Z,11.63
2022-11-25T13:46:53.456Z,12.43
2022-11-25T13:49:25.921Z,11.00
2022-11-25T13:51:56.809Z,13.73
2022-11-25T13:54:32.560Z,13.43
2022-11-25T13:57:20.788Z,10.35
2022-11-25T13:59:58.290Z,12.80
2022-11-25T14:02:33.279Z,9.57
2022-11-25T14:05:09.705Z,13.55
2022-11-25T14:07:46.108Z,14.05
2022-11-25T14:10:38.509Z,8.98
2022-11-25T14:13:21.422Z,12.87
2022-11-25T14:16:06.549Z,8.75
2022-11-25T14:19:35.098Z,14.50
2022-11-25T14:22:08.555Z,13.40
2022-11-25T14:24:39.627Z,29.33
2022-11-25T14:27:16.695Z,13.02
2022-11-25T14:29:52.937Z,17.63
2022-11-25T14:32:23.713Z,16.40
2022-11-25T14:34:57.442Z,18.65
2022-11-25T14:37:30.717Z,15.82
2022-11-25T14:40:03.374Z,16.52
2022-11-25T14:42:38.387Z,15.20
2022-11-25T14:45:22.527Z,12.57
2022-11-25T14:47:50.197Z,18.10
2022-11-25T14:50:34.255Z,14.55
2022-11-25T14:53:07.705Z,11.03
2022-11-25T14:55:36.527Z,8.57
2022-11-25T14:58:05.574Z,10.05
2022-11-25T15:00:34.320Z,10.32
2022-11-25T15:03:03.423Z,10.73
2022-11-25T15:05:34.495Z,11.43
2022-11-25T15:08:04.382Z,8.83
2022-11-25T15:10:40.305Z,13.20
2022-11-25T15:13:19.426Z,15.80
2022-11-25T15:15:47.766Z,14.85
2022-11-25T15:18:21.023Z,16.73
2022-11-25T15:20:51.318Z,23.83
2022-11-25T15:23:28.884Z,19.27
2022-11-25T15:25:57.660Z,21.65
2022-11-25T15:28:26.763Z,25.17
2022-11-25T15:31:00.090Z,25.30
2022-11-25T15:33:29.716Z,22.05
2022-11-25T15:35:57.371Z,22.48
2022-11-25T15:38:38.404Z,30.50
2022-11-25T15:41:07.449Z,24.83
2022-11-25T15:43:39.959Z,20.55
2022-11-25T15:46:08.848Z,21.58
2022-11-25T15:48:41.354Z,20.80
2022-11-25T15:51:22.724Z,17.15
2022-11-25T15:53:54.422Z,14.23
2022-11-25T15:56:25.164Z,17.33
2022-11-25T15:59:00.121Z,21.35
2022-11-25T16:01:31.171Z,24.40
2022-11-25T16:04:25.684Z,20.10
2022-11-25T16:06:55.724Z,18.27
2022-11-25T16:09:28.461Z,17.52
2022-11-25T16:12:06.159Z,19.98
2022-11-25T16:14:37.927Z,19.25
2022-11-25T16:17:10.978Z,15.05
2022-11-25T16:19:42.624Z,16.90
2022-11-25T16:22:14.900Z,16.42
2022-11-25T16:24:50.713Z,16.88
2022-11-25T16:27:24.023Z,17.13
2022-11-25T16:29:56.017Z,20.08
2022-11-25T16:32:25.419Z,17.50
2022-11-25T16:34:56.052Z,19.40
2022-11-25T16:37:24.319Z,19.65
2022-11-25T16:39:51.973Z,22.02
2022-11-25T16:42:21.599Z,21.13
2022-11-25T16:44:51.781Z,20.40
2022-11-25T16:47:22.353Z,25.20
2022-11-25T16:49:50.245Z,22.67
2022-11-25T16:52:17.945Z,21.20
2022-11-25T16:54:46.139Z,19.50
2022-11-25T16:57:19.003Z,18.27
2022-11-25T16:59:49.665Z,20.30
2022-11-25T17:02:22.411Z,23.80
2022-11-25T17:04:50.791Z,18.25
2022-11-25T17:07:35.727Z,19.58
2022-11-25T17:10:03.867Z,16.33
2022-11-25T17:12:34.148Z,15.13
2022-11-25T17:15:05.402Z,15.55
2022-11-25T17:17:35.220Z,17.00
2022-11-25T17:20:03.317Z,18.40
2022-11-25T17:22:36.071Z,12.70
2022-11-25T17:25:05.953Z,16.38
2022-11-25T17:27:34.645Z,23.15
2022-11-25T17:30:06.331Z,19.38
2022-11-25T17:32:36.597Z,16.83
2022-11-25T17:35:04.509Z,19.35
2022-11-25T17:37:32.935Z,17.70
2022-11-25T17:40:00.677Z,14.63
2022-11-25T17:42:31.360Z,19.15
2022-11-25T17:44:59.537Z,19.60
2022-11-25T17:47:27.242Z,20.77
2022-11-25T17:49:57.682Z,16.83
2022-11-25T17:52:25.271Z,22.23
2022-11-25T17:54:52.874Z,40.90
2022-11-25T17:57:23.275Z,33.42
2022-11-25T17:59:51.161Z,40.78
2022-11-25T18:02:21.691Z,27.05
2022-11-25T18:04:49.976Z,27.42
2022-11-25T18:07:19.596Z,27.67
2022-11-25T18:09:47.502Z,21.17
2022-11-25T18:12:24.384Z,26.02
2022-11-25T18:14:52.119Z,23.00
2022-11-25T18:17:20.440Z,21.67
2022-11-25T18:19:54.693Z,23.38
2022-11-25T18:22:24.858Z,29.57
2022-11-25T18:24:53.702Z,21.92
2022-11-25T18:27:26.737Z,24.85
2022-11-25T18:29:55.013Z,20.92
2022-11-25T18:32:23.676Z,17.67
2022-11-25T18:34:51.948Z,19.00
2022-11-25T18:37:19.608Z,21.40
2022-11-25T18:39:48.673Z,19.20
2022-11-25T18:42:27.732Z,22.13
2022-11-25T18:44:56.712Z,20.52
2022-11-25T18:47:24.842Z,18.42
2022-11-25T18:49:55.938Z,18.10
2022-11-25T18:52:24.540Z,16.38
2022-11-25T18:54:53.581Z,17.02
2022-11-25T18:57:21.683Z,14.80
2022-11-25T19:00:10.160Z,17.27
2022-11-25T19:02:37.903Z,18.80
2022-11-25T19:05:16.467Z,19.67
2022-11-25T19:07:44.115Z,16.88
2022-11-25T19:10:16.125Z,17.73
2022-11-25T19:12:46.781Z,19.65
2022-11-25T19:15:19.751Z,18.60
2022-11-25T19:17:50.552Z,17.00
2022-11-25T19:20:20.658Z,18.70
2022-11-25T19:22:48.744Z,15.43
2022-11-25T19:25:18.019Z,14.50
2022-11-25T19:27:49.836Z,14.30
2022-11-25T19:30:19.297Z,13.63
2022-11-25T19:32:48.788Z,17.52
2022-11-25T19:35:19.963Z,19.15
2022-11-25T19:37:48.567Z,18.42
2022-11-25T19:40:22.254Z,24.30
2022-11-25T19:42:49.891Z,18.13
2022-11-25T19:45:19.029Z,13.95
2022-11-25T19:47:49.231Z,17.52
2022-11-25T19:50:21.736Z,14.98
2022-11-25T19:52:49.787Z,14.02
2022-11-25T19:55:21.006Z,17.08
2022-11-25T19:57:49.269Z,16.42
2022-11-25T20:00:19.575Z,17.40
2022-11-25T20:02:50.200Z,18.20
2022-11-25T20:05:21.668Z,24.75
2022-11-25T20:07:49.649Z,18.20
2022-11-25T20:10:21.107Z,17.92
2022-11-25T20:12:49.548Z,18.97
2022-11-25T20:15:17.420Z,16.58
2022-11-25T20:17:48.465Z,16.58
2022-11-25T20:20:19.534Z,15.63
2022-11-25T20:22:56.098Z,18.00
2022-11-25T20:25:25.483Z,18.23
2022-11-25T20:27:53.632Z,19.08
2022-11-25T20:30:25.688Z,16.88
2022-11-25T20:32:54.016Z,18.85
2022-11-25T20:35:22.907Z,21.33
2022-11-25T20:37:57.529Z,16.25
2022-11-25T20:40:33.274Z,17.92
2022-11-25T20:43:01.345Z,13.43
2022-11-25T20:45:29.313Z,18.45
2022-11-25T20:47:58.968Z,17.88
2022-11-25T20:50:29.165Z,17.67
2022-11-25T20:52:56.932Z,17.50
2022-11-25T20:55:26.404Z,16.85
2022-11-25T20:57:54.333Z,17.42
2022-11-25T21:00:25.102Z,16.60
2022-11-25T21:02:53.939Z,20.00
2022-11-25T21:05:22.633Z,15.27
2022-11-25T21:07:51.733Z,13.65
2022-11-25T21:10:27.546Z,17.60
2022-11-25T21:12:56.278Z,12.85
2022-11-25T21:15:26.093Z,19.15
2022-11-25T21:17:54.076Z,15.70
2022-11-25T21:20:22.078Z,19.30
2022-11-25T21:22:52.185Z,16.95
2022-11-25T21:25:22.315Z,16.43
2022-11-25T21:27:52.831Z,17.08
2022-11-25T21:30:21.954Z,19.55
2022-11-25T21:32:52.258Z,18.13
2022-11-25T21:35:20.040Z,18.80
2022-11-25T21:37:47.916Z,15.48
2022-11-25T21:40:32.069Z,22.95
2022-11-25T21:43:02.026Z,16.10
2022-11-25T21:45:30.343Z,18.00
2022-11-25T21:47:58.204Z,18.87
2022-11-25T21:50:29.562Z,17.67
2022-11-25T21:52:57.851Z,20.70
2022-11-25T21:55:26.740Z,22.77
2022-11-25T21:57:54.460Z,22.27
2022-11-25T22:00:26.811Z,32.78
2022-11-25T22:02:54.916Z,26.30
2022-11-25T22:05:25.496Z,22.63
2022-11-25T22:07:54.876Z,23.08
2022-11-25T22:10:23.491Z,20.58
2022-11-25T22:12:51.254Z,17.90
2022-11-25T22:15:21.603Z,16.55
2022-11-25T22:17:54.105Z,17.40
2022-11-25T22:20:26.948Z,23.35
2022-11-25T22:22:55.333Z,20.83
2022-11-25T22:25:24.892Z,18.42
2022-11-25T22:27:52.745Z,22.42
2022-11-25T22:30:22.155Z,21.23
2022-11-25T22:33:00.991Z,14.77
2022-11-25T22:35:28.941Z,20.17
2022-11-25T22:37:56.679Z,20.85
2022-11-25T22:40:26.102Z,15.95
2022-11-25T22:42:55.977Z,21.73
2022-11-25T22:45:31.876Z,15.77
2022-11-25T22:48:04.276Z,18.50
2022-11-25T22:50:34.268Z,17.80
2022-11-25T22:53:02.144Z,16.42
2022-11-25T22:55:31.642Z,22.97
2022-11-25T22:58:00.905Z,19.15
2022-11-25T23:00:31.790Z,21.63
2022-11-25T23:03:03.300Z,15.88
2022-11-25T23:05:33.879Z,22.05
2022-11-25T23:08:02.082Z,19.67
2022-11-25T23:10:31.512Z,14.27
2022-11-25T23:12:59.122Z,18.23
2022-11-25T23:15:27.120Z,17.58
2022-11-25T23:17:56.660Z,19.40
2022-11-25T23:20:29.916Z,19.85
2022-11-25T23:22:57.711Z,17.40
2022-11-25T23:25:25.581Z,17.23
2022-11-25T23:27:53.249Z,19.55
2022-11-25T23:30:22.903Z,20.77
2022-11-25T23:32:52.859Z,22.30
2022-11-25T23:35:24.446Z,21.75
2022-11-25T23:37:56.194Z,21.10
2022-11-25T23:40:25.064Z,19.27
2022-11-25T23:42:55.423Z,21.45
2022-11-25T23:45:25.968Z,19.95
2022-11-25T23:47:55.470Z,16.80
2022-11-25T23:50:28.823Z,21.67
2022-11-25T23:53:02.017Z,16.70
2022-11-25T23:55:33.269Z,15.93
2022-11-25T23:58:02.885Z,18.25
